LOT2 KMCO-KEWR
Flight info
| Callsign | LOT2 |
|---|---|
| Flight time | N/A |
| Altitude | 39000 |
| Route | FATHE4 VIYAP Q87 ALWZZ OGRAE Q99 QUART PHLBO4 |
| Aircraft | A20N/M-SDE2E3FGHIRWXY/LB1 |
Departure
| Time | 2026-05-05 14:30 |
|---|---|
| Airport | Orlando International Airport (KMCO) |
Arrival
| Time | N/A |
|---|---|
| Airport | Newark Liberty International Airport (KEWR) |
| Time | Latitude | Longitude | Altitude | Speed | Heading |
|---|---|---|---|---|---|
| 2026-05-05 13:56 | 28.42520 | -81.30016 | 90 ft | 0 kts | 359° |
| 2026-05-05 14:21 | 28.42513 | -81.30016 | 90 ft | 2 kts | 358° |
| 2026-05-05 14:21 | 28.42496 | -81.30016 | 90 ft | 2 kts | 358° |
| 2026-05-05 14:21 | 28.42479 | -81.30016 | 90 ft | 2 kts | 358° |
| 2026-05-05 14:21 | 28.42463 | -81.30015 | 90 ft | 2 kts | 359° |
| 2026-05-05 14:22 | 28.42446 | -81.30014 | 90 ft | 2 kts | 6° |
| 2026-05-05 14:22 | 28.42431 | -81.30028 | 90 ft | 2 kts | 75° |
| 2026-05-05 14:22 | 28.42431 | -81.30038 | 90 ft | 1 kts | 94° |
| 2026-05-05 14:22 | 28.42431 | -81.30041 | 90 ft | 0 kts | 90° |
| 2026-05-05 14:24 | 28.42431 | -81.30027 | 90 ft | 4 kts | 88° |
| 2026-05-05 14:24 | 28.42448 | -81.29965 | 90 ft | 10 kts | 58° |
| 2026-05-05 14:25 | 28.42519 | -81.29896 | 88 ft | 13 kts | 25° |
| 2026-05-05 14:25 | 28.42597 | -81.29842 | 87 ft | 11 kts | 81° |
| 2026-05-05 14:25 | 28.42529 | -81.29793 | 87 ft | 12 kts | 177° |
| 2026-05-05 14:25 | 28.42428 | -81.29792 | 88 ft | 12 kts | 180° |
| 2026-05-05 14:26 | 28.42331 | -81.29792 | 90 ft | 11 kts | 179° |
| 2026-05-05 14:26 | 28.42232 | -81.29791 | 90 ft | 12 kts | 179° |
| 2026-05-05 14:26 | 28.42131 | -81.29790 | 90 ft | 13 kts | 180° |
| 2026-05-05 14:26 | 28.42025 | -81.29788 | 90 ft | 13 kts | 179° |
| 2026-05-05 14:27 | 28.41914 | -81.29788 | 90 ft | 14 kts | 180° |
| 2026-05-05 14:27 | 28.41797 | -81.29787 | 90 ft | 15 kts | 179° |
| 2026-05-05 14:27 | 28.41669 | -81.29785 | 88 ft | 16 kts | 179° |
| 2026-05-05 14:27 | 28.41533 | -81.29784 | 87 ft | 17 kts | 179° |
| 2026-05-05 14:28 | 28.41391 | -81.29784 | 86 ft | 18 kts | 179° |
| 2026-05-05 14:28 | 28.41243 | -81.29781 | 85 ft | 19 kts | 179° |
| 2026-05-05 14:28 | 28.41091 | -81.29778 | 84 ft | 19 kts | 179° |
| 2026-05-05 14:28 | 28.40934 | -81.29778 | 82 ft | 20 kts | 180° |
| 2026-05-05 14:29 | 28.40824 | -81.29742 | 81 ft | 13 kts | 110° |
| 2026-05-05 14:29 | 28.40821 | -81.29617 | 81 ft | 14 kts | 89° |
| 2026-05-05 14:29 | 28.40894 | -81.29561 | 82 ft | 13 kts | 0° |
| 2026-05-05 14:29 | 28.41205 | -81.29563 | 85 ft | 80 kts | 360° |
| 2026-05-05 14:30 | 28.42124 | -81.29574 | 88 ft | 154 kts | 360° |
| 2026-05-05 14:30 | 28.43455 | -81.29597 | 511 ft | 178 kts | 2° |
| 2026-05-05 14:30 | 28.44855 | -81.29639 | 1303 ft | 182 kts | 5° |
| 2026-05-05 14:30 | 28.46162 | -81.29161 | 2150 ft | 181 kts | 34° |
| 2026-05-05 14:31 | 28.47387 | -81.28243 | 2778 ft | 198 kts | 36° |
| 2026-05-05 14:31 | 28.48753 | -81.27226 | 3348 ft | 221 kts | 34° |
| 2026-05-05 14:31 | 28.50291 | -81.26153 | 4020 ft | 241 kts | 30° |
| 2026-05-05 14:31 | 28.52135 | -81.25358 | 4732 ft | 261 kts | 12° |
| 2026-05-05 14:32 | 28.54219 | -81.25092 | 5578 ft | 274 kts | 2° |
| 2026-05-05 14:32 | 28.56397 | -81.25098 | 6392 ft | 279 kts | 356° |
| 2026-05-05 14:32 | 28.58610 | -81.25259 | 6860 ft | 281 kts | 352° |
| 2026-05-05 14:32 | 28.60829 | -81.25598 | 6973 ft | 281 kts | 350° |
| 2026-05-05 14:33 | 28.63067 | -81.25966 | 6995 ft | 283 kts | 351° |
| 2026-05-05 14:33 | 28.65324 | -81.26291 | 7600 ft | 291 kts | 351° |
| 2026-05-05 14:33 | 28.67540 | -81.26592 | 8784 ft | 287 kts | 351° |
| 2026-05-05 14:33 | 28.69764 | -81.26893 | 9813 ft | 289 kts | 351° |
| 2026-05-05 14:34 | 28.72011 | -81.27198 | 10657 ft | 296 kts | 350° |
| 2026-05-05 14:34 | 28.74397 | -81.27526 | 11202 ft | 314 kts | 350° |
| 2026-05-05 14:34 | 28.76948 | -81.27879 | 11712 ft | 332 kts | 350° |
| 2026-05-05 14:34 | 28.79625 | -81.28245 | 12222 ft | 349 kts | 350° |
| 2026-05-05 14:35 | 28.82399 | -81.28622 | 12990 ft | 356 kts | 350° |
| 2026-05-05 14:35 | 28.85180 | -81.28947 | 13775 ft | 362 kts | 352° |
| 2026-05-05 14:35 | 28.88010 | -81.29195 | 14616 ft | 365 kts | 352° |
| 2026-05-05 14:35 | 28.90864 | -81.29434 | 15459 ft | 367 kts | 352° |
| 2026-05-05 14:36 | 28.93741 | -81.29677 | 16255 ft | 370 kts | 352° |
| 2026-05-05 14:36 | 28.96627 | -81.29923 | 16993 ft | 374 kts | 352° |
| 2026-05-05 14:36 | 28.99552 | -81.30176 | 17728 ft | 377 kts | 351° |
| 2026-05-05 14:36 | 29.02544 | -81.30493 | 18485 ft | 378 kts | 349° |
| 2026-05-05 14:37 | 29.05477 | -81.30827 | 19251 ft | 379 kts | 349° |
| 2026-05-05 14:37 | 29.08434 | -81.31163 | 19988 ft | 379 kts | 349° |
| 2026-05-05 14:37 | 29.11417 | -81.31454 | 20698 ft | 382 kts | 350° |
| 2026-05-05 14:37 | 29.14406 | -81.31647 | 21396 ft | 384 kts | 351° |
| 2026-05-05 14:38 | 29.17409 | -81.31825 | 22044 ft | 387 kts | 350° |
| 2026-05-05 14:38 | 29.20478 | -81.32007 | 22685 ft | 389 kts | 350° |
| 2026-05-05 14:38 | 29.23499 | -81.32190 | 23363 ft | 391 kts | 350° |
| 2026-05-05 14:38 | 29.26567 | -81.32376 | 24023 ft | 392 kts | 350° |
| 2026-05-05 14:39 | 29.29659 | -81.32566 | 24644 ft | 394 kts | 350° |
| 2026-05-05 14:39 | 29.32729 | -81.32752 | 25255 ft | 395 kts | 351° |
| 2026-05-05 14:39 | 29.35872 | -81.32940 | 25831 ft | 397 kts | 351° |
| 2026-05-05 14:39 | 29.38991 | -81.33131 | 26379 ft | 399 kts | 351° |
| 2026-05-05 14:40 | 29.42109 | -81.33315 | 26934 ft | 400 kts | 351° |
| 2026-05-05 14:40 | 29.45277 | -81.33503 | 27424 ft | 402 kts | 351° |
| 2026-05-05 14:40 | 29.48443 | -81.33696 | 27889 ft | 404 kts | 351° |
| 2026-05-05 14:40 | 29.51607 | -81.33888 | 28359 ft | 405 kts | 351° |
| 2026-05-05 14:41 | 29.54803 | -81.34077 | 28841 ft | 404 kts | 351° |
| 2026-05-05 14:41 | 29.57955 | -81.34267 | 29244 ft | 405 kts | 351° |
| 2026-05-05 14:41 | 29.61144 | -81.34457 | 29703 ft | 403 kts | 351° |
| 2026-05-05 14:41 | 29.64316 | -81.34645 | 30249 ft | 399 kts | 351° |
| 2026-05-05 14:42 | 29.67404 | -81.34821 | 30744 ft | 395 kts | 351° |
| 2026-05-05 14:42 | 29.70508 | -81.34995 | 31252 ft | 391 kts | 350° |
| 2026-05-05 14:42 | 29.73549 | -81.35167 | 31720 ft | 387 kts | 349° |
| 2026-05-05 14:42 | 29.76564 | -81.35340 | 32150 ft | 383 kts | 349° |
| 2026-05-05 14:43 | 29.79590 | -81.35510 | 32590 ft | 380 kts | 349° |
| 2026-05-05 14:43 | 29.82539 | -81.35681 | 33047 ft | 375 kts | 349° |
| 2026-05-05 14:43 | 29.85459 | -81.35847 | 33606 ft | 370 kts | 348° |
| 2026-05-05 14:43 | 29.88329 | -81.36015 | 33990 ft | 368 kts | 348° |
| 2026-05-05 14:44 | 29.91248 | -81.36186 | 34316 ft | 368 kts | 348° |
| 2026-05-05 14:44 | 29.94104 | -81.36352 | 34636 ft | 367 kts | 348° |
| 2026-05-05 14:44 | 29.96985 | -81.36515 | 34950 ft | 367 kts | 348° |
| 2026-05-05 14:44 | 29.99873 | -81.36688 | 35326 ft | 364 kts | 348° |
| 2026-05-05 14:45 | 30.02729 | -81.36848 | 35723 ft | 361 kts | 348° |
| 2026-05-05 14:45 | 30.05557 | -81.37011 | 36016 ft | 360 kts | 347° |
| 2026-05-05 14:45 | 30.08390 | -81.37179 | 36303 ft | 359 kts | 347° |
| 2026-05-05 14:45 | 30.11188 | -81.37339 | 36527 ft | 359 kts | 348° |
| 2026-05-05 14:46 | 30.14008 | -81.37503 | 36802 ft | 359 kts | 348° |
| 2026-05-05 14:46 | 30.16810 | -81.37663 | 37041 ft | 359 kts | 347° |
| 2026-05-05 14:46 | 30.19634 | -81.37824 | 37291 ft | 358 kts | 347° |
| 2026-05-05 14:46 | 30.22441 | -81.37989 | 37488 ft | 359 kts | 347° |
| 2026-05-05 14:47 | 30.25216 | -81.38152 | 37698 ft | 358 kts | 347° |
| 2026-05-05 14:47 | 30.28033 | -81.38314 | 37897 ft | 358 kts | 347° |
| 2026-05-05 14:47 | 30.30831 | -81.38474 | 38024 ft | 360 kts | 347° |
| 2026-05-05 14:47 | 30.33674 | -81.38644 | 38101 ft | 361 kts | 347° |
| 2026-05-05 14:48 | 30.36481 | -81.38805 | 38259 ft | 362 kts | 347° |
| 2026-05-05 14:48 | 30.39311 | -81.38966 | 38396 ft | 362 kts | 347° |
| 2026-05-05 14:48 | 30.44991 | -81.39301 | 38646 ft | 363 kts | 347° |
| 2026-05-05 14:49 | 30.47863 | -81.39463 | 38771 ft | 363 kts | 347° |
| 2026-05-05 14:49 | 30.50678 | -81.39608 | 38864 ft | 364 kts | 347° |
| 2026-05-05 14:49 | 30.56409 | -81.39913 | 39076 ft | 364 kts | 347° |
| 2026-05-05 14:50 | 30.62125 | -81.40213 | 39079 ft | 366 kts | 347° |